Wetterdaten: Woche 04.03.19 - 10.03.19 (KW10)
Datum Zeit Temp. Aussen Temp. o. S. +5cm Feuchte Auss Luftdruck Regen Sonnenschein Regendauer Solar Windben Empfang
04.03.2019 00:00 12,9 C 12,2 C 11,7 C 77 % 995,4 hPa 0,0 l/m 0,00 h 0,00 h 0 W/m 26,5 km/h (4 Bft) 99,67 %
04.03.2019 01:00 12,9 C 12,2 C 11,7 C 77 % 994,0 hPa 0,0 l/m 0,00 h 0,00 h 0 W/m 25,6 km/h (4 Bft) 96,82 %
04.03.2019 02:00 13,0 C 12,2 C 11,7 C 76 % 992,9 hPa 0,0 l/m 0,00 h 0,00 h 0 W/m 37,8 km/h (5 Bft) 96,56 %
04.03.2019 03:00 12,7 C 12,1 C 11,5 C 76 % 990,7 hPa 0,0 l/m 0,00 h 0,00 h 0 W/m 39,0 km/h (6 Bft) 99,71 %
04.03.2019 04:00 13,5 C 12,9 C 12,3 C 69 % 988,7 hPa 0,0 l/m 0,00 h 0,00 h 0 W/m 51,2 km/h (7 Bft) 96,37 %
04.03.2019 05:00 13,4 C 12,8 C 12,2 C 67 % 987,6 hPa 0,0 l/m 0,00 h 0,00 h 0 W/m 49,0 km/h (6 Bft) 97,00 %
04.03.2019 06:00 12,9 C 11,2 C 10,6 C 69 % 987,0 hPa 1,4 l/m 0,00 h 0,30 h 0 W/m 46,4 km/h (6 Bft) 99,41 %
04.03.2019 07:00 8,0 C 6,1 C 5,5 C 85 % 987,8 hPa 1,2 l/m 0,00 h 0,70 h 12 W/m 40,9 km/h (6 Bft) 96,87 %
04.03.2019 08:00 8,8 C 8,5 C 7,3 C 82 % 987,4 hPa 0,0 l/m 0,20 h 0,00 h 61 W/m 37,0 km/h (5 Bft) 97,87 %
04.03.2019 09:00 10,2 C 11,2 C 9,6 C 73 % 987,9 hPa 0,0 l/m 0,50 h 0,00 h 218 W/m 42,3 km/h (6 Bft) 98,01 %
04.03.2019 10:00 10,0 C 8,3 C 7,9 C 75 % 988,1 hPa 0,2 l/m 0,13 h 0,80 h 123 W/m 44,4 km/h (6 Bft) 95,58 %
04.03.2019 11:00 9,5 C 8,1 C 7,2 C 80 % 988,0 hPa 1,0 l/m 0,10 h 1,00 h 137 W/m 41,0 km/h (6 Bft) 99,43 %
04.03.2019 12:00 6,8 C 5,6 C 5,2 C 89 % 989,6 hPa 0,8 l/m 0,07 h 0,57 h 130 W/m 22,1 km/h (4 Bft) 96,85 %
04.03.2019 13:00 6,9 C 7,5 C 6,1 C 89 % 991,1 hPa 0,0 l/m 0,33 h 0,00 h 247 W/m 20,8 km/h (4 Bft) 95,99 %
04.03.2019 14:00 7,9 C 8,6 C 7,6 C 83 % 992,3 hPa 0,0 l/m 0,40 h 0,00 h 198 W/m 22,2 km/h (4 Bft) 99,17 %
04.03.2019 15:00 8,9 C 9,9 C 8,1 C 72 % 993,5 hPa 0,0 l/m 0,50 h 0,00 h 218 W/m 26,3 km/h (4 Bft) 95,04 %
04.03.2019 16:00 9,2 C 9,9 C 8,7 C 66 % 994,8 hPa 0,0 l/m 0,90 h 0,00 h 182 W/m 25,9 km/h (4 Bft) 98,04 %
04.03.2019 17:00 8,5 C 8,0 C 7,2 C 66 % 995,9 hPa 0,0 l/m 0,17 h 0,00 h 53 W/m 21,7 km/h (4 Bft) 98,30 %
04.03.2019 18:00 7,8 C 6,9 C 6,3 C 70 % 996,8 hPa 0,0 l/m 0,00 h 0,00 h 8 W/m 13,5 km/h (3 Bft) 95,49 %
04.03.2019 19:00 7,3 C 6,7 C 6,0 C 72 % 997,5 hPa 0,0 l/m 0,00 h 0,00 h 0 W/m 10,9 km/h (2 Bft) 97,24 %
04.03.2019 20:00 7,2 C 6,6 C 5,7 C 75 % 997,7 hPa 0,0 l/m 0,00 h 0,00 h 0 W/m 16,0 km/h (3 Bft) 99,57 %
04.03.2019 21:00 7,2 C 6,3 C 5,6 C 78 % 998,1 hPa 0,6 l/m 0,00 h 0,37 h 0 W/m 22,2 km/h (4 Bft) 96,30 %
04.03.2019 22:00 5,7 C 4,2 C 3,7 C 88 % 998,9 hPa 0,2 l/m 0,00 h 0,60 h 0 W/m 18,0 km/h (3 Bft) 96,30 %
04.03.2019 23:00 5,9 C 5,0 C 4,7 C 90 % 999,5 hPa 0,0 l/m 0,00 h 0,00 h 0 W/m 21,5 km/h (4 Bft) 99,15 %
05.03.2019 00:00 6,3 C 5,7 C 5,0 C 86 % 999,9 hPa 0,0 l/m 0,00 h 0,00 h 0 W/m 20,5 km/h (4 Bft) 95,96 %
05.03.2019 01:00 6,4 C 5,8 C 5,0 C 85 % 1000,0 hPa 0,0 l/m 0,00 h 0,00 h 0 W/m 22,4 km/h (4 Bft) 99,15 %
05.03.2019 02:00 6,2 C 5,5 C 4,8 C 83 % 1000,4 hPa 0,0 l/m 0,00 h 0,40 h 0 W/m 19,6 km/h (3 Bft) 95,67 %
05.03.2019 03:00 5,6 C 5,0 C 4,4 C 84 % 1000,7 hPa 0,0 l/m 0,00 h 0,07 h 0 W/m 21,7 km/h (4 Bft) 96,84 %
05.03.2019 04:00 5,2 C 4,5 C 4,0 C 86 % 1000,6 hPa 0,0 l/m 0,00 h 0,00 h 0 W/m 19,9 km/h (4 Bft) 99,39 %
05.03.2019 05:00 5,2 C 4,6 C 4,1 C 87 % 1000,7 hPa 0,0 l/m 0,00 h 0,00 h 0 W/m 24,3 km/h (4 Bft) 96,16 %
05.03.2019 06:00 5,6 C 5,0 C 4,4 C 85 % 1000,9 hPa 0,0 l/m 0,00 h 0,00 h 0 W/m 26,0 km/h (4 Bft) 97,04 %
05.03.2019 07:00 5,1 C 4,3 C 3,8 C 87 % 1001,3 hPa 0,0 l/m 0,00 h 0,40 h 8 W/m 26,3 km/h (4 Bft) 99,29 %
05.03.2019 08:00 4,4 C 3,3 C 2,9 C 91 % 1001,9 hPa 0,2 l/m 0,00 h 1,00 h 36 W/m 25,5 km/h (4 Bft) 96,23 %
05.03.2019 09:00 4,6 C 4,3 C 3,7 C 92 % 1002,5 hPa 0,0 l/m 0,00 h 0,77 h 51 W/m 15,1 km/h (3 Bft) 98,15 %
05.03.2019 10:00 5,7 C 6,4 C 5,7 C 91 % 1003,0 hPa 0,0 l/m 0,10 h 0,00 h 159 W/m 15,8 km/h (3 Bft) 97,83 %
05.03.2019 11:00 7,1 C 7,6 C 6,9 C 83 % 1003,3 hPa 0,0 l/m 0,03 h 0,00 h 172 W/m 16,4 km/h (3 Bft) 96,37 %
05.03.2019 12:00 8,1 C 8,8 C 8,1 C 80 % 1003,7 hPa 0,0 l/m 0,17 h 0,00 h 208 W/m 17,2 km/h (3 Bft) 98,02 %
05.03.2019 13:00 9,1 C 12,0 C 10,1 C 78 % 1004,1 hPa 0,0 l/m 0,47 h 0,00 h 365 W/m 18,9 km/h (3 Bft) 97,79 %
05.03.2019 14:00 10,4 C 13,7 C 10,0 C 71 % 1004,4 hPa 0,0 l/m 0,77 h 0,00 h 482 W/m 19,6 km/h (3 Bft) 98,79 %
05.03.2019 15:00 10,8 C 13,6 C 10,0 C 70 % 1005,0 hPa 0,0 l/m 0,83 h 0,00 h 365 W/m 15,8 km/h (3 Bft) 95,37 %
05.03.2019 16:00 10,7 C 12,1 C 10,3 C 67 % 1005,2 hPa 0,0 l/m 0,83 h 0,00 h 225 W/m 14,5 km/h (3 Bft) 97,74 %
05.03.2019 17:00 10,1 C 9,3 C 8,4 C 67 % 1005,5 hPa 0,0 l/m 0,03 h 0,00 h 30 W/m 11,8 km/h (2 Bft) 97,55 %
05.03.2019 18:00 8,9 C 7,8 C 7,2 C 70 % 1006,2 hPa 0,0 l/m 0,00 h 0,00 h 6 W/m 9,9 km/h (2 Bft) 96,37 %
05.03.2019 19:00 8,0 C 7,1 C 6,7 C 76 % 1006,9 hPa 0,0 l/m 0,00 h 0,00 h 0 W/m 11,0 km/h (2 Bft) 98,95 %
05.03.2019 20:00 7,3 C 6,2 C 5,6 C 79 % 1007,3 hPa 0,0 l/m 0,00 h 0,00 h 0 W/m 7,6 km/h (2 Bft) 98,29 %
05.03.2019 21:00 6,3 C 5,2 C 4,6 C 82 % 1007,3 hPa 0,0 l/m 0,00 h 0,00 h 0 W/m 7,1 km/h (2 Bft) 94,90 %
05.03.2019 22:00 5,5 C 4,9 C 4,2 C 85 % 1007,3 hPa 0,0 l/m 0,00 h 0,00 h 0 W/m 8,5 km/h (2 Bft) 98,55 %
05.03.2019 23:00 5,5 C 5,0 C 4,4 C 87 % 1007,0 hPa 0,0 l/m 0,00 h 0,00 h 0 W/m 9,0 km/h (2 Bft) 97,48 %
06.03.2019 00:00 5,7 C 5,3 C 4,7 C 88 % 1006,8 hPa 0,0 l/m 0,00 h 0,00 h 0 W/m 11,4 km/h (2 Bft) 97,63 %
06.03.2019 01:00 6,0 C 4,7 C 4,2 C 90 % 1006,3 hPa 0,2 l/m 0,00 h 0,67 h 0 W/m 13,0 km/h (3 Bft) 96,25 %
06.03.2019 02:00 6,1 C 5,0 C 4,4 C 92 % 1005,8 hPa 0,0 l/m 0,00 h 0,63 h 0 W/m 13,3 km/h (3 Bft) 98,00 %
06.03.2019 03:00 6,3 C 5,5 C 4,8 C 93 % 1004,9 hPa 0,0 l/m 0,00 h 0,07 h 0 W/m 18,1 km/h (3 Bft) 97,93 %
06.03.2019 04:00 6,4 C 5,6 C 4,9 C 93 % 1004,1 hPa 0,0 l/m 0,00 h 0,00 h 0 W/m 19,2 km/h (3 Bft) 96,91 %
06.03.2019 05:00 6,6 C 5,7 C 5,0 C 94 % 1003,5 hPa 0,0 l/m 0,00 h 0,00 h 0 W/m 16,4 km/h (3 Bft) 96,62 %
06.03.2019 06:00 6,9 C 6,5 C 5,6 C 94 % 1002,6 hPa 0,0 l/m 0,00 h 0,00 h 0 W/m 21,9 km/h (4 Bft) 98,29 %
06.03.2019 07:00 7,4 C 7,1 C 6,5 C 92 % 1001,5 hPa 0,0 l/m 0,00 h 0,00 h 14 W/m 27,7 km/h (4 Bft) 98,22 %
06.03.2019 08:00 7,6 C 7,2 C 6,7 C 89 % 1000,6 hPa 0,0 l/m 0,00 h 0,00 h 49 W/m 28,2 km/h (4 Bft) 95,88 %
06.03.2019 09:00 8,3 C 8,6 C 8,0 C 86 % 1000,0 hPa 0,0 l/m 0,30 h 0,00 h 149 W/m 30,6 km/h (5 Bft) 99,08 %
06.03.2019 10:00 9,7 C 10,4 C 9,7 C 79 % 999,2 hPa 0,0 l/m 0,47 h 0,00 h 215 W/m 34,9 km/h (5 Bft) 96,21 %
06.03.2019 11:00 11,3 C 11,9 C 11,2 C 72 % 998,6 hPa 0,0 l/m 0,33 h 0,07 h 239 W/m 32,4 km/h (5 Bft) 97,33 %
06.03.2019 12:00 12,1 C 12,4 C 12,1 C 70 % 997,7 hPa 0,0 l/m 0,17 h 0,03 h 238 W/m 29,3 km/h (5 Bft) 97,37 %
06.03.2019 13:00 12,1 C 12,2 C 11,8 C 70 % 996,6 hPa 0,2 l/m 0,17 h 0,13 h 215 W/m 37,4 km/h (5 Bft) 96,23 %
06.03.2019 14:00 12,0 C 11,9 C 11,3 C 72 % 995,9 hPa 0,0 l/m 0,00 h 0,33 h 121 W/m 31,3 km/h (5 Bft) 97,65 %
06.03.2019 15:00 11,6 C 9,2 C 8,8 C 78 % 995,7 hPa 0,4 l/m 0,00 h 0,97 h 53 W/m 23,4 km/h (4 Bft) 98,01 %
06.03.2019 16:00 11,0 C 9,0 C 8,4 C 81 % 994,8 hPa 0,0 l/m 0,00 h 0,80 h 46 W/m 22,4 km/h (4 Bft) 96,59 %
06.03.2019 17:00 11,5 C 10,2 C 9,5 C 79 % 994,3 hPa 0,2 l/m 0,00 h 0,63 h 11 W/m 19,8 km/h (4 Bft) 98,00 %
06.03.2019 18:00 11,1 C 8,3 C 8,0 C 86 % 994,2 hPa 1,0 l/m 0,00 h 1,00 h 0 W/m 16,2 km/h (3 Bft) 94,15 %
06.03.2019 19:00 10,7 C 8,7 C 8,3 C 89 % 993,7 hPa 0,4 l/m 0,00 h 1,00 h 0 W/m 23,0 km/h (4 Bft) 97,65 %
06.03.2019 20:00 11,0 C 9,6 C 8,7 C 88 % 993,2 hPa 0,0 l/m 0,00 h 0,90 h 0 W/m 22,0 km/h (4 Bft) 99,34 %
06.03.2019 21:00 10,7 C 8,5 C 8,3 C 89 % 992,8 hPa 0,6 l/m 0,00 h 1,00 h 0 W/m 16,3 km/h (3 Bft) 94,27 %
06.03.2019 22:00 10,3 C 8,5 C 8,0 C 91 % 992,5 hPa 0,0 l/m 0,00 h 0,60 h 0 W/m 15,1 km/h (3 Bft) 98,36 %
06.03.2019 23:00 10,1 C 8,3 C 7,8 C 91 % 991,8 hPa 0,2 l/m 0,00 h 0,77 h 0 W/m 17,2 km/h (3 Bft) 98,86 %
07.03.2019 00:00 10,3 C 8,9 C 8,4 C 91 % 990,9 hPa 0,0 l/m 0,00 h 0,93 h 0 W/m 16,4 km/h (3 Bft) 95,81 %
07.03.2019 01:00 10,4 C 8,8 C 8,3 C 91 % 990,2 hPa 0,4 l/m 0,00 h 0,83 h 0 W/m 14,9 km/h (3 Bft) 97,86 %
07.03.2019 02:00 10,1 C 8,7 C 8,2 C 93 % 989,3 hPa 0,0 l/m 0,00 h 0,43 h 0 W/m 13,4 km/h (3 Bft) 97,58 %
07.03.2019 03:00 10,1 C 8,8 C 8,3 C 93 % 988,1 hPa 0,0 l/m 0,00 h 0,60 h 0 W/m 19,4 km/h (3 Bft) 97,65 %
07.03.2019 04:00 10,2 C 9,0 C 8,4 C 93 % 986,6 hPa 0,2 l/m 0,00 h 0,27 h 0 W/m 25,3 km/h (4 Bft) 97,63 %
07.03.2019 05:00 10,5 C 9,7 C 9,0 C 91 % 985,1 hPa 0,0 l/m 0,00 h 0,00 h 0 W/m 25,5 km/h (4 Bft) 96,83 %
07.03.2019 06:00 10,6 C 9,0 C 8,4 C 90 % 985,7 hPa 0,6 l/m 0,00 h 0,90 h 0 W/m 37,5 km/h (5 Bft) 98,05 %
07.03.2019 07:00 9,1 C 7,0 C 6,6 C 88 % 988,0 hPa 1,4 l/m 0,00 h 1,00 h 13 W/m 39,1 km/h (6 Bft) 97,80 %
07.03.2019 08:00 7,9 C 6,5 C 6,0 C 92 % 990,2 hPa 0,6 l/m 0,00 h 1,00 h 40 W/m 30,9 km/h (5 Bft) 96,23 %
07.03.2019 09:00 7,9 C 7,1 C 6,4 C 90 % 991,5 hPa 0,0 l/m 0,30 h 0,97 h 117 W/m 31,5 km/h (5 Bft) 98,50 %
07.03.2019 10:00 9,1 C 9,8 C 8,9 C 84 % 993,0 hPa 0,0 l/m 0,23 h 0,00 h 210 W/m 27,2 km/h (4 Bft) 97,28 %
07.03.2019 11:00 9,6 C 10,2 C 9,2 C 81 % 993,8 hPa 0,0 l/m 0,30 h 0,00 h 228 W/m 37,2 km/h (5 Bft) 97,72 %
07.03.2019 12:00 10,6 C 12,7 C 11,1 C 77 % 994,4 hPa 0,0 l/m 0,67 h 0,00 h 362 W/m 38,6 km/h (5 Bft) 96,82 %
07.03.2019 13:00 11,6 C 13,3 C 12,2 C 71 % 994,6 hPa 0,0 l/m 0,67 h 0,00 h 431 W/m 39,1 km/h (6 Bft) 96,73 %
07.03.2019 14:00 11,2 C 13,8 C 10,6 C 71 % 994,9 hPa 0,0 l/m 1,00 h 0,00 h 574 W/m 40,5 km/h (6 Bft) 98,29 %
07.03.2019 15:00 10,0 C 9,3 C 8,0 C 80 % 995,0 hPa 0,6 l/m 0,47 h 0,33 h 229 W/m 35,1 km/h (5 Bft) 97,30 %
07.03.2019 16:00 10,5 C 10,7 C 8,7 C 74 % 995,1 hPa 0,0 l/m 0,53 h 0,00 h 179 W/m 36,5 km/h (5 Bft) 95,87 %
07.03.2019 17:00 9,3 C 8,2 C 7,6 C 76 % 995,6 hPa 0,0 l/m 0,17 h 0,23 h 38 W/m 41,2 km/h (6 Bft) 98,08 %
07.03.2019 18:00 8,5 C 8,0 C 7,5 C 78 % 996,0 hPa 0,0 l/m 0,00 h 0,00 h 12 W/m 34,8 km/h (5 Bft) 97,69 %
07.03.2019 19:00 8,6 C 7,8 C 7,2 C 77 % 996,6 hPa 0,0 l/m 0,00 h 0,00 h 0 W/m 39,4 km/h (6 Bft) 97,72 %
07.03.2019 20:00 8,2 C 7,5 C 7,0 C 77 % 997,1 hPa 0,0 l/m 0,00 h 0,00 h 0 W/m 34,1 km/h (5 Bft) 96,52 %
07.03.2019 21:00 8,0 C 7,4 C 6,9 C 78 % 997,5 hPa 0,0 l/m 0,00 h 0,00 h 0 W/m 30,9 km/h (5 Bft) 96,86 %
07.03.2019 22:00 8,2 C 7,5 C 6,9 C 76 % 997,6 hPa 0,0 l/m 0,00 h 0,00 h 0 W/m 39,8 km/h (6 Bft) 99,21 %
07.03.2019 23:00 8,3 C 7,8 C 7,2 C 76 % 997,9 hPa 0,0 l/m 0,00 h 0,10 h 0 W/m 34,4 km/h (5 Bft) 96,94 %
08.03.2019 00:00 8,2 C 7,5 C 6,9 C 79 % 998,3 hPa 0,0 l/m 0,00 h 0,43 h 0 W/m 30,8 km/h (5 Bft) 92,73 %
08.03.2019 01:00 8,1 C 7,1 C 6,5 C 82 % 999,1 hPa 0,0 l/m 0,00 h 0,90 h 0 W/m 29,3 km/h (5 Bft) 99,57 %
08.03.2019 02:00 7,7 C 6,0 C 5,4 C 86 % 1000,1 hPa 0,2 l/m 0,00 h 1,00 h 0 W/m 24,9 km/h (4 Bft) 97,08 %
08.03.2019 03:00 7,2 C 5,5 C 4,9 C 90 % 1000,9 hPa 0,8 l/m 0,00 h 1,00 h 0 W/m 19,2 km/h (3 Bft) 96,37 %
08.03.2019 04:00 6,3 C 4,9 C 4,4 C 92 % 1002,0 hPa 0,4 l/m 0,00 h 0,90 h 0 W/m 11,9 km/h (2 Bft) 98,43 %
08.03.2019 05:00 6,0 C 5,0 C 4,4 C 93 % 1003,1 hPa 0,0 l/m 0,00 h 0,43 h 0 W/m 10,9 km/h (2 Bft) 96,81 %
08.03.2019 06:00 5,9 C 5,0 C 4,4 C 93 % 1004,2 hPa 0,0 l/m 0,00 h 0,00 h 0 W/m 10,8 km/h (2 Bft) 98,64 %
08.03.2019 07:00 5,9 C 5,0 C 4,4 C 93 % 1005,8 hPa 0,0 l/m 0,00 h 0,00 h 15 W/m 9,7 km/h (2 Bft) 96,43 %
08.03.2019 08:00 6,2 C 5,4 C 4,6 C 92 % 1007,5 hPa 0,2 l/m 0,00 h 0,00 h 40 W/m 11,8 km/h (2 Bft) 96,01 %
08.03.2019 09:00 6,9 C 8,0 C 6,7 C 88 % 1008,8 hPa 0,0 l/m 0,50 h 0,00 h 219 W/m 15,0 km/h (3 Bft) 99,36 %
08.03.2019 10:00 8,2 C 9,8 C 8,1 C 80 % 1009,8 hPa 0,0 l/m 0,50 h 0,00 h 231 W/m 18,6 km/h (3 Bft) 96,30 %
08.03.2019 11:00 8,5 C 10,6 C 8,6 C 77 % 1010,8 hPa 0,0 l/m 0,50 h 0,00 h 315 W/m 17,0 km/h (3 Bft) 97,70 %
08.03.2019 12:00 10,4 C 13,9 C 11,3 C 69 % 1011,5 hPa 0,0 l/m 0,83 h 0,00 h 497 W/m 19,7 km/h (3 Bft) 96,88 %
08.03.2019 13:00 10,5 C 12,5 C 11,1 C 67 % 1011,9 hPa 0,0 l/m 0,50 h 0,00 h 298 W/m 16,8 km/h (3 Bft) 95,79 %
08.03.2019 14:00 10,5 C 11,4 C 10,4 C 66 % 1011,9 hPa 0,0 l/m 0,37 h 0,00 h 244 W/m 15,0 km/h (3 Bft) 98,01 %
08.03.2019 15:00 10,4 C 11,2 C 10,2 C 66 % 1011,8 hPa 0,0 l/m 0,57 h 0,00 h 205 W/m 17,3 km/h (3 Bft) 97,43 %
08.03.2019 16:00 10,4 C 10,5 C 9,7 C 65 % 1011,9 hPa 0,0 l/m 0,30 h 0,00 h 130 W/m 17,0 km/h (3 Bft) 97,96 %
08.03.2019 17:00 10,0 C 9,4 C 8,9 C 68 % 1011,5 hPa 0,0 l/m 0,00 h 0,00 h 41 W/m 13,7 km/h (3 Bft) 96,22 %
08.03.2019 18:00 9,4 C 8,4 C 7,9 C 72 % 1011,7 hPa 0,0 l/m 0,00 h 0,00 h 9 W/m 20,4 km/h (4 Bft) 99,32 %
08.03.2019 19:00 8,5 C 7,8 C 7,2 C 80 % 1011,7 hPa 0,0 l/m 0,00 h 0,00 h 0 W/m 20,7 km/h (4 Bft) 96,61 %
08.03.2019 20:00 8,5 C 7,9 C 7,4 C 82 % 1011,5 hPa 0,0 l/m 0,00 h 0,00 h 0 W/m 20,5 km/h (4 Bft) 96,22 %
08.03.2019 21:00 8,5 C 7,7 C 7,2 C 82 % 1011,0 hPa 0,0 l/m 0,00 h 0,00 h 0 W/m 16,6 km/h (3 Bft) 99,35 %
08.03.2019 22:00 8,0 C 7,3 C 6,8 C 82 % 1010,3 hPa 0,0 l/m 0,00 h 0,00 h 0 W/m 15,7 km/h (3 Bft) 97,37 %
08.03.2019 23:00 8,1 C 7,4 C 6,8 C 81 % 1009,5 hPa 0,0 l/m 0,00 h 0,80 h 0 W/m 24,9 km/h (4 Bft) 95,57 %
09.03.2019 00:00 8,2 C 7,7 C 7,0 C 81 % 1008,3 hPa 0,0 l/m 0,00 h 0,17 h 0 W/m 21,5 km/h (4 Bft) 99,14 %
09.03.2019 01:00 8,3 C 6,5 C 6,1 C 83 % 1007,6 hPa 1,0 l/m 0,00 h 0,83 h 0 W/m 28,0 km/h (4 Bft) 96,94 %
09.03.2019 02:00 7,4 C 5,8 C 5,5 C 91 % 1006,7 hPa 1,0 l/m 0,00 h 1,00 h 0 W/m 29,1 km/h (5 Bft) 97,14 %
09.03.2019 03:00 7,3 C 6,1 C 5,6 C 94 % 1006,0 hPa 0,2 l/m 0,00 h 1,00 h 0 W/m 28,9 km/h (5 Bft) 98,07 %
09.03.2019 04:00 7,5 C 6,6 C 6,0 C 95 % 1006,0 hPa 0,2 l/m 0,00 h 1,00 h 0 W/m 23,4 km/h (4 Bft) 96,00 %
09.03.2019 05:00 7,9 C 6,9 C 6,5 C 96 % 1006,7 hPa 0,2 l/m 0,00 h 0,93 h 0 W/m 25,6 km/h (4 Bft) 98,21 %
09.03.2019 06:00 8,2 C 7,2 C 6,7 C 96 % 1007,5 hPa 0,0 l/m 0,00 h 0,23 h 1 W/m 16,1 km/h (3 Bft) 97,31 %
09.03.2019 07:00 8,2 C 7,5 C 6,9 C 96 % 1008,1 hPa 0,0 l/m 0,43 h 0,00 h 31 W/m 13,2 km/h (3 Bft) 95,59 %
09.03.2019 08:00 8,6 C 8,0 C 7,3 C 96 % 1008,9 hPa 0,0 l/m 0,00 h 0,00 h 52 W/m 16,6 km/h (3 Bft) 97,65 %
09.03.2019 09:00 9,2 C 8,6 C 7,9 C 94 % 1009,2 hPa 0,0 l/m 0,00 h 0,00 h 88 W/m 19,9 km/h (4 Bft) 92,23 %
09.03.2019 10:00 9,9 C 10,0 C 8,9 C 90 % 1009,2 hPa 0,0 l/m 0,00 h 0,00 h 116 W/m 26,0 km/h (4 Bft) 96,95 %
09.03.2019 11:00 10,4 C 10,6 C 9,9 C 87 % 1008,8 hPa 0,0 l/m 0,00 h 0,00 h 172 W/m 27,6 km/h (4 Bft) 98,45 %
09.03.2019 12:00 11,0 C 11,8 C 11,3 C 82 % 1008,2 hPa 0,0 l/m 0,37 h 0,00 h 282 W/m 38,7 km/h (5 Bft) 96,42 %
09.03.2019 13:00 12,3 C 13,0 C 12,3 C 75 % 1007,1 hPa 0,0 l/m 0,37 h 0,00 h 267 W/m 37,8 km/h (5 Bft) 98,93 %
09.03.2019 14:00 11,1 C 10,3 C 9,6 C 79 % 1006,1 hPa 0,2 l/m 0,13 h 0,60 h 180 W/m 32,1 km/h (5 Bft) 95,73 %
09.03.2019 15:00 11,0 C 11,0 C 9,6 C 85 % 1005,6 hPa 0,0 l/m 0,57 h 0,50 h 264 W/m 33,3 km/h (5 Bft) 94,81 %
09.03.2019 16:00 11,1 C 10,8 C 9,8 C 80 % 1005,7 hPa 0,0 l/m 0,33 h 0,80 h 127 W/m 32,2 km/h (5 Bft) 98,65 %
09.03.2019 17:00 9,2 C 8,5 C 7,6 C 79 % 1007,9 hPa 0,0 l/m 0,17 h 0,43 h 35 W/m 41,5 km/h (6 Bft) 96,37 %
09.03.2019 18:00 8,3 C 7,7 C 7,1 C 80 % 1009,8 hPa 0,0 l/m 0,07 h 0,00 h 12 W/m 27,2 km/h (4 Bft) 97,86 %
09.03.2019 19:00 8,2 C 7,3 C 6,7 C 80 % 1011,2 hPa 0,0 l/m 0,00 h 0,00 h 0 W/m 17,8 km/h (3 Bft) 96,87 %
09.03.2019 20:00 7,8 C 7,1 C 6,5 C 82 % 1012,2 hPa 0,0 l/m 0,00 h 0,00 h 0 W/m 10,2 km/h (2 Bft) 97,15 %
09.03.2019 21:00 8,1 C 7,8 C 6,8 C 77 % 1012,5 hPa 0,0 l/m 0,00 h 0,00 h 0 W/m 12,7 km/h (3 Bft) 99,50 %
09.03.2019 22:00 8,3 C 7,8 C 7,2 C 74 % 1012,6 hPa 0,0 l/m 0,00 h 0,00 h 0 W/m 13,1 km/h (3 Bft) 94,16 %
09.03.2019 23:00 8,5 C 7,8 C 7,2 C 76 % 1012,6 hPa 0,0 l/m 0,00 h 0,00 h 0 W/m 11,4 km/h (2 Bft) 98,65 %
10.03.2019 00:00 8,4 C 7,8 C 7,2 C 82 % 1012,3 hPa 0,0 l/m 0,00 h 0,00 h 0 W/m 11,0 km/h (2 Bft) 99,02 %
10.03.2019 01:00 8,3 C 7,7 C 7,0 C 84 % 1011,7 hPa 0,0 l/m 0,00 h 0,00 h 0 W/m 9,4 km/h (2 Bft) 95,58 %
10.03.2019 02:00 8,2 C 7,8 C 7,2 C 86 % 1010,8 hPa 0,0 l/m 0,00 h 0,00 h 0 W/m 12,8 km/h (3 Bft) 97,79 %
10.03.2019 03:00 8,1 C 7,0 C 6,4 C 86 % 1008,9 hPa 0,0 l/m 0,00 h 0,70 h 0 W/m 11,5 km/h (2 Bft) 98,63 %
10.03.2019 04:00 7,7 C 6,0 C 5,6 C 89 % 1007,3 hPa 1,0 l/m 0,00 h 0,97 h 0 W/m 8,5 km/h (2 Bft) 97,33 %
10.03.2019 05:00 7,0 C 5,6 C 5,0 C 92 % 1005,5 hPa 0,8 l/m 0,00 h 1,00 h 0 W/m 9,4 km/h (2 Bft) 97,38 %
10.03.2019 06:00 6,4 C 5,1 C 4,6 C 94 % 1003,7 hPa 2,4 l/m 0,00 h 1,00 h 0 W/m 5,8 km/h (2 Bft) 95,49 %
10.03.2019 07:00 5,9 C 5,0 C 4,4 C 95 % 1001,8 hPa 1,0 l/m 0,00 h 0,83 h 7 W/m 9,5 km/h (2 Bft) 98,09 %
10.03.2019 08:00 5,8 C 5,0 C 4,4 C 97 % 1000,1 hPa 1,4 l/m 0,00 h 0,83 h 25 W/m 9,0 km/h (2 Bft) 98,22 %
10.03.2019 09:00 6,0 C 5,7 C 5,2 C 97 % 999,2 hPa 0,8 l/m 0,00 h 0,60 h 72 W/m 4,3 km/h (1 Bft) 94,66 %
10.03.2019 10:00 7,9 C 8,2 C 7,7 C 98 % 998,2 hPa 0,8 l/m 0,00 h 0,43 h 134 W/m 15,2 km/h (3 Bft) 99,50 %
10.03.2019 11:00 10,9 C 13,0 C 10,0 C 98 % 997,3 hPa 0,2 l/m 0,67 h 0,67 h 418 W/m 28,1 km/h (4 Bft) 98,08 %
10.03.2019 12:00 12,0 C 11,8 C 10,1 C 86 % 997,1 hPa 0,4 l/m 0,73 h 0,63 h 385 W/m 36,8 km/h (5 Bft) 95,05 %
10.03.2019 13:00 11,4 C 10,6 C 9,8 C 85 % 997,5 hPa 0,4 l/m 0,33 h 0,50 h 201 W/m 34,9 km/h (5 Bft) 98,01 %
10.03.2019 14:00 10,8 C 10,9 C 9,2 C 83 % 998,2 hPa 0,0 l/m 0,27 h 0,17 h 208 W/m 41,3 km/h (6 Bft) 96,37 %
10.03.2019 15:00 9,7 C 9,5 C 8,7 C 72 % 1000,3 hPa 0,0 l/m 0,00 h 0,00 h 106 W/m 50,3 km/h (7 Bft) 95,86 %
10.03.2019 16:00 8,6 C 8,4 C 7,8 C 75 % 1002,8 hPa 0,0 l/m 0,33 h 0,00 h 137 W/m 49,7 km/h (6 Bft) 96,87 %
10.03.2019 17:00 6,8 C 6,1 C 5,5 C 82 % 1005,8 hPa 0,0 l/m 0,00 h 0,80 h 19 W/m 44,0 km/h (6 Bft) 98,00 %
10.03.2019 18:00 5,8 C 4,9 C 4,0 C 89 % 1007,6 hPa 0,2 l/m 0,00 h 1,00 h 9 W/m 27,1 km/h (4 Bft) 97,08 %
10.03.2019 19:00 6,0 C 5,5 C 4,6 C 80 % 1009,0 hPa 0,0 l/m 0,00 h 0,17 h 0 W/m 34,1 km/h (5 Bft) 96,44 %
10.03.2019 20:00 5,2 C 4,3 C 3,5 C 81 % 1010,8 hPa 1,2 l/m 0,00 h 0,47 h 0 W/m 30,0 km/h (5 Bft) 98,36 %
10.03.2019 21:00 3,1 C 1,9 C 1,6 C 91 % 1011,7 hPa 0,6 l/m 0,00 h 0,50 h 0 W/m 14,3 km/h (3 Bft) 97,79 %
10.03.2019 22:00 2,6 C 1,7 C 1,2 C 93 % 1011,8 hPa 0,0 l/m 0,00 h 0,00 h 0 W/m 10,3 km/h (2 Bft) 96,91 %
10.03.2019 23:00 2,9 C 2,4 C 1,7 C 93 % 1012,0 hPa 0,2 l/m 0,00 h 0,20 h 0 W/m 16,4 km/h (3 Bft) 95,94 %
Min-Datum _ 10.03.19 10.03.19 10.03.19 04.03.19 07.03.19 - - - - 05.03.19 08.03.19
_ Min-Zeit 22:18 21:00 21:42 17:04 05:26 - - - - 20:20 00:02
Minimum _ 2,6 C 1,7 C 1,1 C 64 % 984,9 hPa - - - - 0,0 km/h (0 Bft) 5,00 %
Max-Datum _ 04.03.19 08.03.19 09.03.19 10.03.19 09.03.19 10.03.19 08.03.19 08.03.19 08.03.19 04.03.19 04.03.19
_ Max-Zeit 04:34 12:04 12:58 10:44 23:18 06:00 11:26 05:10 12:08 06:04 00:02
Maximum _ 13,9 C 17,2 C 16,1 C 99 % 1012,8 hPa 2,4 l/m 0,07 h 0,08 h 775 W/m 93,3 km/h
S (10 Bft)
100,00 %
Durchschnitt _ 8,5 C 8,1 C 7,3 C 83 % 1001,3 hPa #28,4 l/m #21:08 h #48:46 h 156 W/m 23,6 km/h (4 Bft) 97,28 %
© 2019 W. Hausmann